createdAt,value
2018-05-03T00:01:18.130Z,80.68
2018-05-03T00:03:46.382Z,81.09
2018-05-03T00:06:14.667Z,81.22
2018-05-03T00:08:42.922Z,80.90
2018-05-03T00:11:11.214Z,81.21
2018-05-03T00:13:39.473Z,81.18
2018-05-03T00:16:08.503Z,80.75
2018-05-03T00:18:36.814Z,80.88
2018-05-03T00:21:05.138Z,80.55
2018-05-03T00:23:33.394Z,80.37
2018-05-03T00:26:01.699Z,80.39
2018-05-03T00:28:29.963Z,80.49
2018-05-03T00:30:58.230Z,80.41
2018-05-03T00:33:26.498Z,81.02
2018-05-03T00:35:54.899Z,81.31
2018-05-03T00:38:23.160Z,82.03
2018-05-03T00:40:51.438Z,81.94
2018-05-03T00:43:19.724Z,81.79
2018-05-03T00:45:47.978Z,82.10
2018-05-03T00:48:17.022Z,82.55
2018-05-03T00:50:45.300Z,83.32
2018-05-03T00:53:13.547Z,82.86
2018-05-03T00:55:41.829Z,82.85
2018-05-03T00:58:10.079Z,82.06
2018-05-03T01:00:39.170Z,82.72
2018-05-03T01:03:08.286Z,82.85
2018-05-03T01:05:36.540Z,83.21
2018-05-03T01:08:05.587Z,83.41
2018-05-03T01:10:33.931Z,83.59
2018-05-03T01:13:02.180Z,83.31
2018-05-03T01:15:31.315Z,83.42
2018-05-03T01:17:59.560Z,83.46
2018-05-03T01:20:28.595Z,83.50
2018-05-03T01:22:56.968Z,83.12
2018-05-03T01:25:25.226Z,82.84
2018-05-03T01:27:53.491Z,82.70
2018-05-03T01:30:22.612Z,83.10
2018-05-03T01:32:50.879Z,83.31
2018-05-03T01:38:30.881Z,83.47
2018-05-03T01:40:59.239Z,83.52
2018-05-03T01:43:27.502Z,83.44
2018-05-03T01:45:55.787Z,83.15
2018-05-03T01:48:24.043Z,82.89
2018-05-03T01:50:52.310Z,82.88
2018-05-03T01:53:21.364Z,82.72
2018-05-03T01:55:49.704Z,83.51
2018-05-03T01:58:17.996Z,84.10
2018-05-03T02:00:46.274Z,84.41
2018-05-03T02:03:14.540Z,84.14
2018-05-03T02:05:42.799Z,84.08
2018-05-03T02:08:11.098Z,84.17
2018-05-03T02:10:39.363Z,84.66
2018-05-03T02:13:07.612Z,84.96
2018-05-03T02:15:36.653Z,86.59
2018-05-03T02:18:04.907Z,86.52
2018-05-03T02:20:33.231Z,86.69
2018-05-03T02:23:02.279Z,86.94
2018-05-03T02:25:30.549Z,87.06
2018-05-03T02:27:58.794Z,86.71
2018-05-03T02:30:27.072Z,86.60
2018-05-03T02:32:55.395Z,87.08
2018-05-03T02:35:23.679Z,86.71
2018-05-03T02:37:52.008Z,86.26
2018-05-03T02:40:20.209Z,85.55
2018-05-03T02:42:48.503Z,85.23
2018-05-03T02:45:16.772Z,85.03
2018-05-03T02:47:45.044Z,85.00
2018-05-03T02:50:13.326Z,84.88
2018-05-03T02:52:41.596Z,85.02
2018-05-03T02:55:09.866Z,85.41
2018-05-03T02:58:01.558Z,85.56
2018-05-03T03:00:53.278Z,85.98
2018-05-03T03:03:44.766Z,86.53
2018-05-03T03:06:36.539Z,86.61
2018-05-03T03:09:28.396Z,87.27
2018-05-03T03:15:42.810Z,86.78
2018-05-03T03:18:34.487Z,86.94
2018-05-03T03:25:01.799Z,87.63
2018-05-03T03:27:53.570Z,88.39
2018-05-03T03:30:46.024Z,90.21
2018-05-03T03:33:32.983Z,89.89
2018-05-03T03:36:19.047Z,90.53
2018-05-03T03:39:05.251Z,90.58
2018-05-03T03:41:38.967Z,89.74
2018-05-03T03:44:25.239Z,89.42
2018-05-03T03:46:54.261Z,88.69
2018-05-03T03:49:22.515Z,88.04
2018-05-03T03:51:50.797Z,87.76
2018-05-03T03:54:19.045Z,88.09
2018-05-03T03:56:48.281Z,87.81
2018-05-03T03:59:17.396Z,87.59
2018-05-03T04:01:45.657Z,87.70
2018-05-03T04:04:13.928Z,87.54
2018-05-03T04:06:42.187Z,87.43
2018-05-03T04:09:11.206Z,87.81
2018-05-03T04:11:39.478Z,88.44
2018-05-03T04:14:07.727Z,88.37
2018-05-03T04:16:36.906Z,88.37
2018-05-03T04:19:22.935Z,88.64
2018-05-03T04:22:08.964Z,89.54
2018-05-03T04:27:53.832Z,90.10
2018-05-03T04:30:23.019Z,90.25
2018-05-03T04:32:51.288Z,90.04
2018-05-03T04:35:19.530Z,90.75
2018-05-03T04:37:47.787Z,92.22
2018-05-03T04:40:16.117Z,91.34
2018-05-03T04:42:44.367Z,90.55
2018-05-03T04:45:13.422Z,89.54
2018-05-03T04:47:41.686Z,89.16
2018-05-03T04:50:09.935Z,89.03
2018-05-03T04:52:38.203Z,88.27
2018-05-03T04:55:06.482Z,87.87
2018-05-03T04:57:34.812Z,86.94
2018-05-03T05:00:03.092Z,86.98
2018-05-03T05:02:31.387Z,86.27
2018-05-03T05:04:59.734Z,86.24
2018-05-03T05:07:28.017Z,84.94
2018-05-03T05:09:56.359Z,84.38
2018-05-03T05:12:24.619Z,83.70
2018-05-03T05:14:52.924Z,83.33
2018-05-03T05:17:21.181Z,82.87
2018-05-03T05:19:49.443Z,82.61
2018-05-03T05:22:18.487Z,82.48
2018-05-03T05:24:46.841Z,82.30
2018-05-03T05:27:15.119Z,81.74
2018-05-03T05:29:43.406Z,80.80
2018-05-03T05:32:11.779Z,80.48
2018-05-03T05:34:40.066Z,80.23
2018-05-03T05:37:08.336Z,79.19
2018-05-03T05:39:36.611Z,79.04
2018-05-03T05:42:04.940Z,79.21
2018-05-03T05:44:33.973Z,79.90
2018-05-03T05:47:02.251Z,79.01
2018-05-03T05:49:30.513Z,79.66
2018-05-03T05:51:58.866Z,78.53
2018-05-03T05:54:27.895Z,77.94
2018-05-03T05:56:56.167Z,78.20
2018-05-03T05:59:24.443Z,78.28
2018-05-03T06:01:52.823Z,77.52
2018-05-03T06:04:21.116Z,77.09
2018-05-03T06:06:49.290Z,76.39
2018-05-03T06:09:17.563Z,75.05
2018-05-03T06:11:45.832Z,74.79
2018-05-03T06:14:14.088Z,73.51
2018-05-03T06:16:42.438Z,72.36
2018-05-03T06:19:10.723Z,74.39
2018-05-03T06:21:39.767Z,75.73
2018-05-03T06:24:08.027Z,75.45
2018-05-03T06:26:36.295Z,75.41
2018-05-03T06:29:04.571Z,75.55
2018-05-03T06:31:32.883Z,75.39
2018-05-03T06:34:01.235Z,75.11
2018-05-03T06:36:29.491Z,74.97
2018-05-03T06:38:58.643Z,76.22
2018-05-03T06:41:26.819Z,74.47
2018-05-03T06:43:55.158Z,73.99
2018-05-03T06:46:23.438Z,74.27
2018-05-03T06:48:51.702Z,74.06
2018-05-03T06:51:19.975Z,73.42
2018-05-03T06:53:48.265Z,73.97
2018-05-03T06:56:16.537Z,74.90
2018-05-03T06:58:44.815Z,76.39
2018-05-03T07:01:13.209Z,76.79
2018-05-03T07:03:41.473Z,76.58
2018-05-03T07:06:09.730Z,75.84
2018-05-03T07:08:38.029Z,75.74
2018-05-03T07:11:06.294Z,75.35
2018-05-03T07:13:34.595Z,75.82
2018-05-03T07:16:02.879Z,75.50
2018-05-03T07:18:31.154Z,75.04
2018-05-03T07:20:59.440Z,75.38
2018-05-03T07:23:27.725Z,74.80
2018-05-03T07:25:56.001Z,75.03
2018-05-03T07:28:24.278Z,74.45
2018-05-03T07:30:52.535Z,75.02
2018-05-03T07:33:20.803Z,74.02
2018-05-03T07:35:49.187Z,74.89
2018-05-03T07:38:17.468Z,74.50
2018-05-03T07:40:45.772Z,73.82
2018-05-03T07:43:14.011Z,72.31
2018-05-03T07:45:42.322Z,71.89
2018-05-03T07:48:10.590Z,71.96
2018-05-03T07:50:38.872Z,73.10
2018-05-03T07:53:07.135Z,72.56
2018-05-03T07:55:35.396Z,72.61
2018-05-03T07:58:03.676Z,72.09
2018-05-03T08:00:31.934Z,70.66
2018-05-03T08:03:00.219Z,69.46
2018-05-03T08:05:30.037Z,69.27
2018-05-03T08:07:58.315Z,69.01
2018-05-03T08:10:26.572Z,69.16
2018-05-03T08:12:54.853Z,68.47
2018-05-03T08:15:23.129Z,68.51
2018-05-03T08:17:51.424Z,67.83
2018-05-03T08:20:19.692Z,68.20
2018-05-03T08:22:47.970Z,68.00
2018-05-03T08:25:16.235Z,67.44
2018-05-03T08:27:44.503Z,67.20
2018-05-03T08:30:12.782Z,68.49
2018-05-03T08:32:41.046Z,68.84
2018-05-03T08:35:09.322Z,70.19
2018-05-03T08:37:37.586Z,68.65
2018-05-03T08:40:06.710Z,68.94
2018-05-03T08:42:34.981Z,66.31
2018-05-03T08:45:03.296Z,66.30
2018-05-03T08:47:31.741Z,64.43
2018-05-03T08:50:00.011Z,62.28
2018-05-03T08:52:28.280Z,62.87
2018-05-03T08:54:56.671Z,63.02
2018-05-03T08:57:24.939Z,61.66
2018-05-03T08:59:53.230Z,62.83
2018-05-03T09:02:21.512Z,63.03
2018-05-03T09:04:49.798Z,63.18
2018-05-03T09:07:18.164Z,62.63
2018-05-03T09:09:46.416Z,62.59
2018-05-03T09:12:14.713Z,62.26
2018-05-03T09:14:42.966Z,63.06
2018-05-03T09:17:11.253Z,62.12
2018-05-03T09:19:39.514Z,61.65
2018-05-03T09:22:08.575Z,60.98
2018-05-03T09:24:36.872Z,62.25
2018-05-03T09:27:05.913Z,61.17
2018-05-03T09:29:34.279Z,61.46
2018-05-03T09:32:02.542Z,61.28
2018-05-03T09:34:30.814Z,60.20
2018-05-03T09:36:59.090Z,62.93
2018-05-03T09:39:27.392Z,60.30
2018-05-03T09:41:55.666Z,58.27
2018-05-03T09:44:23.968Z,59.30
2018-05-03T09:46:52.233Z,55.28
2018-05-03T09:49:20.516Z,56.69
2018-05-03T09:51:48.779Z,57.99
2018-05-03T09:54:17.042Z,58.29
2018-05-03T09:56:45.315Z,59.06
2018-05-03T09:59:13.584Z,58.25
2018-05-03T10:01:41.864Z,58.30
2018-05-03T10:04:10.125Z,60.04
2018-05-03T10:06:39.170Z,58.67
2018-05-03T10:09:07.433Z,58.90
2018-05-03T10:11:36.543Z,59.88
2018-05-03T10:14:04.816Z,58.87
2018-05-03T10:16:33.171Z,59.14
2018-05-03T10:19:01.472Z,56.53
2018-05-03T10:21:29.727Z,53.08
2018-05-03T10:23:57.979Z,54.29
2018-05-03T10:26:26.267Z,54.36
2018-05-03T10:28:54.530Z,49.14
2018-05-03T10:31:23.571Z,49.93
2018-05-03T10:33:51.839Z,49.78
2018-05-03T10:36:20.189Z,49.81
2018-05-03T10:38:48.407Z,50.70
2018-05-03T10:41:16.680Z,49.78
2018-05-03T10:43:44.951Z,50.46
2018-05-03T10:46:13.215Z,47.69
2018-05-03T10:48:41.595Z,48.10
2018-05-03T10:51:09.787Z,49.60
2018-05-03T10:53:38.052Z,48.24
2018-05-03T10:56:06.335Z,49.60
2018-05-03T10:58:34.641Z,49.32
2018-05-03T11:01:02.977Z,49.22
2018-05-03T11:03:31.240Z,50.71
2018-05-03T11:05:59.519Z,48.33
2018-05-03T11:08:27.787Z,47.36
2018-05-03T11:10:56.063Z,47.92
2018-05-03T11:13:24.335Z,47.62
2018-05-03T11:15:52.603Z,47.92
2018-05-03T11:18:20.898Z,47.82
2018-05-03T11:20:49.175Z,46.36
2018-05-03T11:23:17.443Z,47.12
2018-05-03T11:25:45.727Z,48.78
2018-05-03T11:28:14.585Z,47.02
2018-05-03T11:30:43.634Z,47.22
2018-05-03T11:33:11.898Z,47.54
2018-05-03T11:35:40.162Z,45.97
2018-05-03T11:38:08.449Z,42.52
2018-05-03T11:40:36.715Z,45.92
2018-05-03T11:43:05.055Z,43.61
2018-05-03T11:45:35.111Z,43.41
2018-05-03T11:48:03.376Z,44.70
2018-05-03T11:50:31.679Z,43.82
2018-05-03T11:52:59.939Z,44.43
2018-05-03T11:55:28.221Z,45.22
2018-05-03T11:57:56.494Z,43.32
2018-05-03T12:00:24.770Z,44.35
2018-05-03T12:02:53.074Z,45.14
2018-05-03T12:05:21.415Z,46.14
2018-05-03T12:07:49.706Z,42.07
2018-05-03T12:10:17.972Z,41.92
2018-05-03T12:12:46.252Z,42.00
2018-05-03T12:15:14.503Z,42.85
2018-05-03T12:17:42.783Z,42.62
2018-05-03T12:20:11.075Z,41.60
2018-05-03T12:22:39.338Z,43.66
2018-05-03T12:25:07.629Z,42.04
2018-05-03T12:27:35.894Z,43.10
2018-05-03T12:30:04.165Z,43.25
2018-05-03T12:32:32.451Z,42.68
2018-05-03T12:35:00.757Z,40.97
2018-05-03T12:37:29.016Z,41.69
2018-05-03T12:39:57.314Z,41.64
2018-05-03T12:42:25.590Z,40.89
2018-05-03T12:44:53.856Z,39.99
2018-05-03T12:47:22.130Z,41.33
2018-05-03T12:49:50.440Z,38.43
2018-05-03T12:52:18.710Z,39.95
2018-05-03T12:54:46.978Z,39.85
2018-05-03T12:57:15.250Z,40.79
2018-05-03T12:59:43.527Z,39.39
2018-05-03T13:02:11.855Z,40.31
2018-05-03T13:04:40.903Z,40.26
2018-05-03T13:07:09.188Z,41.21
2018-05-03T13:09:37.521Z,40.47
2018-05-03T13:12:05.904Z,40.05
2018-05-03T13:14:34.198Z,42.38
2018-05-03T13:17:02.493Z,38.00
2018-05-03T13:19:30.838Z,38.57
2018-05-03T13:21:59.120Z,38.93
2018-05-03T13:24:27.383Z,38.52
2018-05-03T13:26:55.650Z,37.71
2018-05-03T13:29:23.985Z,38.40
2018-05-03T13:31:52.316Z,35.59
2018-05-03T13:34:20.601Z,34.42
2018-05-03T13:36:48.995Z,33.22
2018-05-03T13:39:17.350Z,32.38
2018-05-03T13:41:45.730Z,31.64
2018-05-03T13:44:14.008Z,31.42
2018-05-03T13:46:42.289Z,30.76
2018-05-03T13:49:10.596Z,33.36
2018-05-03T13:51:38.858Z,31.25
2018-05-03T13:54:07.132Z,29.51
2018-05-03T13:56:35.398Z,31.80
2018-05-03T13:59:03.683Z,32.39
2018-05-03T14:01:32.039Z,31.22
2018-05-03T14:04:00.334Z,30.07
2018-05-03T14:06:28.629Z,29.37
2018-05-03T14:08:56.968Z,29.93
2018-05-03T14:11:25.238Z,28.95
2018-05-03T14:13:53.526Z,28.71
2018-05-03T14:16:21.830Z,29.24
2018-05-03T14:18:50.086Z,29.88
2018-05-03T14:21:18.390Z,33.01
2018-05-03T14:23:46.659Z,33.08
2018-05-03T14:26:14.931Z,31.92
2018-05-03T14:28:43.297Z,31.71
2018-05-03T14:31:11.563Z,31.03
2018-05-03T14:33:39.849Z,29.83
2018-05-03T14:36:08.115Z,30.53
2018-05-03T14:38:36.494Z,31.12
2018-05-03T14:41:04.750Z,30.94
2018-05-03T14:43:33.048Z,31.02
2018-05-03T14:46:01.351Z,30.09
2018-05-03T14:48:29.614Z,30.09
2018-05-03T14:50:57.978Z,32.19
2018-05-03T14:53:26.240Z,32.13
2018-05-03T14:55:54.519Z,30.68
2018-05-03T14:58:23.591Z,29.77
2018-05-03T15:00:52.738Z,31.37
2018-05-03T15:03:21.004Z,32.31
2018-05-03T15:05:49.269Z,30.39
2018-05-03T15:08:17.545Z,30.35
2018-05-03T15:10:45.817Z,30.19
2018-05-03T15:13:14.084Z,30.26
2018-05-03T15:15:42.356Z,29.98
2018-05-03T15:18:11.480Z,29.46
2018-05-03T15:20:40.465Z,30.31
2018-05-03T15:23:08.732Z,31.24
2018-05-03T15:25:37.011Z,30.00
2018-05-03T15:28:05.307Z,29.93
2018-05-03T15:30:33.623Z,30.21
2018-05-03T15:33:01.889Z,30.21
2018-05-03T15:35:30.162Z,31.78
2018-05-03T15:37:58.448Z,30.97
2018-05-03T15:40:29.854Z,30.07
2018-05-03T15:42:58.134Z,30.88
2018-05-03T15:45:26.408Z,30.14
2018-05-03T15:47:54.675Z,30.74
2018-05-03T15:50:22.957Z,31.16
2018-05-03T15:52:51.231Z,30.90
2018-05-03T15:55:19.524Z,29.83
2018-05-03T15:57:47.887Z,29.39
2018-05-03T16:00:16.171Z,29.37
2018-05-03T16:02:44.451Z,28.51
2018-05-03T16:05:12.723Z,28.86
2018-05-03T16:07:41.168Z,28.49
2018-05-03T16:10:09.384Z,29.02
2018-05-03T16:12:37.662Z,29.46
2018-05-03T16:15:05.921Z,29.61
2018-05-03T16:17:34.205Z,29.45
2018-05-03T16:20:02.518Z,30.06
2018-05-03T16:22:30.776Z,31.26
2018-05-03T16:24:59.135Z,31.56
2018-05-03T16:27:27.435Z,31.04
2018-05-03T16:29:55.683Z,30.65
2018-05-03T16:32:23.962Z,29.85
2018-05-03T16:34:52.234Z,30.12
2018-05-03T16:37:20.532Z,30.50
2018-05-03T16:39:48.892Z,31.17
2018-05-03T16:42:17.291Z,31.85
2018-05-03T16:44:45.649Z,32.73
2018-05-03T16:47:13.927Z,33.77
2018-05-03T16:49:42.183Z,34.17
2018-05-03T16:52:10.464Z,33.40
2018-05-03T16:54:38.788Z,33.20
2018-05-03T16:57:07.793Z,32.53
2018-05-03T16:59:36.048Z,32.53
2018-05-03T17:02:04.401Z,32.60
2018-05-03T17:04:32.823Z,33.07
2018-05-03T17:07:01.135Z,33.46
2018-05-03T17:09:29.432Z,33.30
2018-05-03T17:11:57.696Z,32.87
2018-05-03T17:14:25.980Z,33.92
2018-05-03T17:16:54.265Z,34.13
2018-05-03T17:19:22.551Z,34.73
2018-05-03T17:21:50.819Z,36.03
2018-05-03T17:24:19.080Z,37.61
2018-05-03T17:26:47.390Z,39.01
2018-05-03T17:29:15.646Z,38.58
2018-05-03T17:31:43.919Z,39.19
2018-05-03T17:34:12.188Z,39.59
2018-05-03T17:36:40.474Z,40.07
2018-05-03T17:39:08.838Z,39.72
2018-05-03T17:41:37.036Z,39.65
2018-05-03T17:44:05.319Z,39.72
2018-05-03T17:46:33.587Z,40.19
2018-05-03T17:49:01.931Z,40.69
2018-05-03T17:51:30.957Z,41.92
2018-05-03T17:53:59.222Z,43.13
2018-05-03T17:56:27.504Z,44.19
2018-05-03T17:58:55.766Z,44.62
2018-05-03T18:01:24.040Z,45.69
2018-05-03T18:03:52.295Z,46.13
2018-05-03T18:06:21.328Z,47.30
2018-05-03T18:08:49.603Z,47.81
2018-05-03T18:11:17.872Z,48.84
2018-05-03T18:13:46.171Z,49.67
2018-05-03T18:16:14.538Z,50.59
2018-05-03T18:18:43.535Z,50.54
2018-05-03T18:21:11.819Z,51.32
2018-05-03T18:23:40.079Z,51.39
2018-05-03T18:26:08.445Z,51.98
2018-05-03T18:28:36.631Z,52.64
2018-05-03T18:31:05.135Z,52.29
2018-05-03T18:33:33.579Z,52.52
2018-05-03T18:36:02.611Z,52.51
2018-05-03T18:38:31.744Z,52.97
2018-05-03T18:41:00.961Z,53.40
2018-05-03T18:43:30.404Z,53.48
2018-05-03T18:46:00.195Z,54.00
2018-05-03T18:48:31.080Z,54.13
2018-05-03T18:51:01.006Z,54.51
2018-05-03T18:53:30.865Z,55.01
2018-05-03T18:56:01.341Z,55.19
2018-05-03T18:58:30.669Z,55.54
2018-05-03T19:00:59.895Z,56.06
2018-05-03T19:03:30.018Z,56.93
2018-05-03T19:05:59.388Z,56.31
2018-05-03T19:08:28.586Z,56.79
2018-05-03T19:10:57.860Z,56.79
2018-05-03T19:13:27.211Z,56.89
2018-05-03T19:15:57.325Z,57.41
2018-05-03T19:18:26.609Z,57.56
2018-05-03T19:20:56.217Z,57.98
2018-05-03T19:23:25.494Z,57.94
2018-05-03T19:25:54.844Z,58.17
2018-05-03T19:28:24.900Z,58.50
2018-05-03T19:30:54.284Z,58.08
2018-05-03T19:33:23.695Z,58.02
2018-05-03T19:35:53.120Z,57.91
2018-05-03T19:38:22.562Z,57.94
2018-05-03T19:40:52.896Z,58.13
2018-05-03T19:43:22.272Z,58.08
2018-05-03T19:45:51.661Z,58.58
2018-05-03T19:48:21.065Z,58.36
2018-05-03T19:50:50.371Z,58.55
2018-05-03T19:53:19.765Z,58.33
2018-05-03T19:55:49.101Z,58.67
2018-05-03T19:58:19.431Z,59.02
2018-05-03T20:00:50.127Z,59.01
2018-05-03T20:03:19.806Z,59.24
2018-05-03T20:05:49.124Z,59.34
2018-05-03T20:08:18.399Z,59.36
2018-05-03T20:10:48.561Z,59.15
2018-05-03T20:13:17.863Z,59.89
2018-05-03T20:15:47.265Z,60.36
2018-05-03T20:18:17.153Z,59.82
2018-05-03T20:20:47.835Z,59.77
2018-05-03T20:23:18.051Z,59.93
2018-05-03T20:25:47.438Z,60.15
2018-05-03T20:28:17.165Z,60.20
2018-05-03T20:30:47.858Z,60.92
2018-05-03T20:33:17.192Z,60.99
2018-05-03T20:35:47.771Z,61.36
2018-05-03T20:38:17.146Z,61.55
2018-05-03T20:40:47.670Z,61.54
2018-05-03T20:43:17.631Z,60.89
2018-05-03T20:45:47.789Z,61.17
2018-05-03T20:48:17.491Z,61.87
2018-05-03T20:50:47.388Z,61.34
2018-05-03T20:53:16.256Z,61.56
2018-05-03T20:55:46.645Z,61.70
2018-05-03T20:58:16.501Z,61.44
2018-05-03T21:00:46.249Z,61.77
2018-05-03T21:03:14.705Z,61.52
2018-05-03T21:05:43.943Z,61.73
2018-05-03T21:08:12.304Z,61.85
2018-05-03T21:10:41.342Z,62.15
2018-05-03T21:13:09.677Z,62.11
2018-05-03T21:15:38.099Z,62.05
2018-05-03T21:18:06.414Z,62.24
2018-05-03T21:20:34.768Z,62.31
2018-05-03T21:23:03.152Z,62.37
2018-05-03T21:25:31.421Z,62.31
2018-05-03T21:27:59.750Z,62.63
2018-05-03T21:30:28.089Z,62.43
2018-05-03T21:32:56.388Z,62.61
2018-05-03T21:35:24.678Z,63.09
2018-05-03T21:37:53.044Z,62.79
2018-05-03T21:40:21.325Z,63.07
2018-05-03T21:42:49.632Z,62.64
2018-05-03T21:45:17.910Z,62.42
2018-05-03T21:47:46.255Z,62.48
2018-05-03T21:50:14.572Z,62.68
2018-05-03T21:52:42.872Z,62.77
2018-05-03T21:55:11.241Z,62.96
2018-05-03T21:57:39.529Z,63.54
2018-05-03T22:00:07.800Z,63.43
2018-05-03T22:02:36.087Z,63.12
2018-05-03T22:05:04.395Z,63.09
2018-05-03T22:07:32.677Z,62.80
2018-05-03T22:10:00.959Z,63.05
2018-05-03T22:12:29.230Z,63.72
2018-05-03T22:14:57.536Z,64.39
2018-05-03T22:17:25.840Z,64.21
2018-05-03T22:19:54.200Z,64.32
2018-05-03T22:22:22.498Z,64.98
2018-05-03T22:24:50.826Z,64.98
2018-05-03T22:27:19.236Z,64.32
2018-05-03T22:29:47.539Z,64.90
2018-05-03T22:32:15.802Z,64.96
2018-05-03T22:34:44.076Z,65.07
2018-05-03T22:37:12.342Z,64.40
2018-05-03T22:39:40.620Z,64.68
2018-05-03T22:42:08.936Z,64.47
2018-05-03T22:44:37.190Z,64.85
2018-05-03T22:47:05.511Z,65.04
2018-05-03T22:49:33.803Z,65.37
2018-05-03T22:52:02.093Z,65.36
2018-05-03T22:54:30.377Z,65.81
2018-05-03T22:56:58.682Z,66.16
2018-05-03T22:59:26.981Z,65.41
2018-05-03T23:01:55.299Z,65.70
2018-05-03T23:04:23.617Z,66.46
2018-05-03T23:06:51.852Z,66.66
2018-05-03T23:09:20.193Z,66.60
2018-05-03T23:11:49.235Z,67.08
2018-05-03T23:14:17.529Z,67.04
2018-05-03T23:16:45.873Z,67.34
2018-05-03T23:19:14.163Z,67.21
2018-05-03T23:21:42.464Z,67.87
2018-05-03T23:24:10.737Z,68.61
2018-05-03T23:26:39.077Z,68.44
2018-05-03T23:29:07.405Z,68.66
2018-05-03T23:31:35.699Z,69.12
2018-05-03T23:34:04.023Z,69.23
2018-05-03T23:36:32.370Z,69.36
2018-05-03T23:39:00.734Z,69.29
2018-05-03T23:41:29.034Z,69.48
2018-05-03T23:43:57.341Z,69.62
2018-05-03T23:46:25.603Z,69.51
2018-05-03T23:48:53.961Z,69.83
2018-05-03T23:51:22.976Z,70.40
2018-05-03T23:53:51.265Z,70.61
2018-05-03T23:56:19.554Z,71.40
2018-05-03T23:58:47.884Z,70.45
